Terminal Aerodrome Forecast
Issued by NWS

Home | Current Version | Previous Version | Graphics & Text | Print | Product List | Glossary On
Versions: 1 2 3 4 5 6 7 8 9 10 11 12
000
FTUS43 KBIS 030534
TAFMOT
TAF
KMOT 030534Z 0306/0406 29011KT P6SM BKN100
     FM031500 30015G21KT P6SM SKC
     FM040100 30005KT P6SM SKC=

USA.gov is the U.S. government's official web portal to all federal, state and local government web resources and services.